sensor_id;sensor_type;location;lat;lon;timestamp;P1;durP1;ratioP1;P2;durP2;ratioP2
4555;SDS011;2290;48.674;9.018;2022-08-19T00:01:14;11.53;;;6.60;;
4555;SDS011;2290;48.674;9.018;2022-08-19T00:03:40;10.97;;;6.90;;
4555;SDS011;2290;48.674;9.018;2022-08-19T00:06:06;12.23;;;6.90;;
4555;SDS011;2290;48.674;9.018;2022-08-19T00:08:31;13.87;;;7.63;;
4555;SDS011;2290;48.674;9.018;2022-08-19T00:10:57;11.07;;;6.70;;
4555;SDS011;2290;48.674;9.018;2022-08-19T00:13:22;13.37;;;7.07;;
4555;SDS011;2290;48.674;9.018;2022-08-19T00:15:48;13.73;;;7.27;;
4555;SDS011;2290;48.674;9.018;2022-08-19T00:18:13;11.67;;;7.30;;
4555;SDS011;2290;48.674;9.018;2022-08-19T00:20:39;12.83;;;6.67;;
4555;SDS011;2290;48.674;9.018;2022-08-19T00:23:05;11.80;;;7.87;;
4555;SDS011;2290;48.674;9.018;2022-08-19T00:25:32;12.20;;;7.10;;
4555;SDS011;2290;48.674;9.018;2022-08-19T00:27:58;12.63;;;7.50;;
4555;SDS011;2290;48.674;9.018;2022-08-19T00:30:24;11.57;;;7.53;;
4555;SDS011;2290;48.674;9.018;2022-08-19T00:32:53;14.93;;;8.20;;
4555;SDS011;2290;48.674;9.018;2022-08-19T00:35:22;13.17;;;7.37;;
4555;SDS011;2290;48.674;9.018;2022-08-19T00:37:49;11.77;;;7.20;;
4555;SDS011;2290;48.674;9.018;2022-08-19T00:40:15;13.07;;;7.40;;
4555;SDS011;2290;48.674;9.018;2022-08-19T00:42:42;12.60;;;6.80;;
4555;SDS011;2290;48.674;9.018;2022-08-19T00:45:09;10.50;;;6.33;;
4555;SDS011;2290;48.674;9.018;2022-08-19T00:47:38;13.80;;;7.70;;
4555;SDS011;2290;48.674;9.018;2022-08-19T00:50:04;10.83;;;7.17;;
4555;SDS011;2290;48.674;9.018;2022-08-19T00:52:32;12.90;;;7.07;;
4555;SDS011;2290;48.674;9.018;2022-08-19T00:55:03;14.37;;;7.50;;
4555;SDS011;2290;48.674;9.018;2022-08-19T00:57:35;13.60;;;7.90;;
4555;SDS011;2290;48.674;9.018;2022-08-19T01:00:06;11.37;;;6.80;;
4555;SDS011;2290;48.674;9.018;2022-08-19T01:02:36;13.07;;;7.40;;
4555;SDS011;2290;48.674;9.018;2022-08-19T01:05:03;13.97;;;8.20;;
4555;SDS011;2290;48.674;9.018;2022-08-19T01:07:31;14.10;;;7.50;;
4555;SDS011;2290;48.674;9.018;2022-08-19T01:09:59;11.57;;;7.50;;
4555;SDS011;2290;48.674;9.018;2022-08-19T01:12:24;14.20;;;7.77;;
4555;SDS011;2290;48.674;9.018;2022-08-19T01:14:50;13.50;;;7.60;;
4555;SDS011;2290;48.674;9.018;2022-08-19T01:17:17;13.40;;;7.73;;
4555;SDS011;2290;48.674;9.018;2022-08-19T01:19:44;13.50;;;7.90;;
4555;SDS011;2290;48.674;9.018;2022-08-19T01:22:16;13.33;;;7.40;;
4555;SDS011;2290;48.674;9.018;2022-08-19T01:25:07;14.93;;;7.90;;
4555;SDS011;2290;48.674;9.018;2022-08-19T01:27:37;15.33;;;8.27;;
4555;SDS011;2290;48.674;9.018;2022-08-19T01:30:06;14.13;;;7.77;;
4555;SDS011;2290;48.674;9.018;2022-08-19T01:32:32;14.70;;;9.20;;
4555;SDS011;2290;48.674;9.018;2022-08-19T01:34:58;14.90;;;7.87;;
4555;SDS011;2290;48.674;9.018;2022-08-19T01:37:26;16.27;;;7.80;;
4555;SDS011;2290;48.674;9.018;2022-08-19T01:39:52;16.20;;;8.73;;
4555;SDS011;2290;48.674;9.018;2022-08-19T01:42:18;13.93;;;8.10;;
4555;SDS011;2290;48.674;9.018;2022-08-19T01:44:44;14.90;;;7.87;;
4555;SDS011;2290;48.674;9.018;2022-08-19T01:47:10;13.87;;;8.27;;
4555;SDS011;2290;48.674;9.018;2022-08-19T01:49:36;12.60;;;7.53;;
4555;SDS011;2290;48.674;9.018;2022-08-19T01:52:03;13.70;;;8.60;;
4555;SDS011;2290;48.674;9.018;2022-08-19T01:54:29;14.87;;;7.80;;
4555;SDS011;2290;48.674;9.018;2022-08-19T01:56:57;11.87;;;7.57;;
4555;SDS011;2290;48.674;9.018;2022-08-19T01:59:28;14.10;;;6.93;;
4555;SDS011;2290;48.674;9.018;2022-08-19T02:01:54;12.27;;;7.60;;
4555;SDS011;2290;48.674;9.018;2022-08-19T02:04:20;11.90;;;8.23;;
4555;SDS011;2290;48.674;9.018;2022-08-19T02:06:46;15.70;;;7.87;;
4555;SDS011;2290;48.674;9.018;2022-08-19T02:09:13;14.33;;;8.20;;
4555;SDS011;2290;48.674;9.018;2022-08-19T02:11:39;16.53;;;8.40;;
4555;SDS011;2290;48.674;9.018;2022-08-19T02:14:06;15.43;;;8.93;;
4555;SDS011;2290;48.674;9.018;2022-08-19T02:16:33;15.27;;;8.63;;
4555;SDS011;2290;48.674;9.018;2022-08-19T02:19:00;13.10;;;7.90;;
4555;SDS011;2290;48.674;9.018;2022-08-19T02:21:26;12.23;;;7.70;;
4555;SDS011;2290;48.674;9.018;2022-08-19T02:23:52;15.23;;;7.53;;
4555;SDS011;2290;48.674;9.018;2022-08-19T02:26:18;16.33;;;8.17;;
4555;SDS011;2290;48.674;9.018;2022-08-19T02:28:45;14.80;;;7.73;;
4555;SDS011;2290;48.674;9.018;2022-08-19T02:31:14;14.53;;;8.10;;
4555;SDS011;2290;48.674;9.018;2022-08-19T02:33:42;15.33;;;8.80;;
4555;SDS011;2290;48.674;9.018;2022-08-19T02:36:08;17.17;;;8.20;;
4555;SDS011;2290;48.674;9.018;2022-08-19T02:38:35;15.23;;;9.30;;
4555;SDS011;2290;48.674;9.018;2022-08-19T02:41:12;14.33;;;7.07;;
4555;SDS011;2290;48.674;9.018;2022-08-19T02:43:40;12.13;;;7.70;;
4555;SDS011;2290;48.674;9.018;2022-08-19T02:48:49;15.93;;;8.93;;
4555;SDS011;2290;48.674;9.018;2022-08-19T02:51:20;19.73;;;9.07;;
4555;SDS011;2290;48.674;9.018;2022-08-19T02:53:47;20.67;;;8.90;;
4555;SDS011;2290;48.674;9.018;2022-08-19T02:56:13;15.83;;;8.57;;
4555;SDS011;2290;48.674;9.018;2022-08-19T02:58:40;16.00;;;8.27;;
4555;SDS011;2290;48.674;9.018;2022-08-19T03:01:06;16.07;;;9.00;;
4555;SDS011;2290;48.674;9.018;2022-08-19T03:03:32;21.20;;;9.50;;
4555;SDS011;2290;48.674;9.018;2022-08-19T03:06:08;13.30;;;8.33;;
4555;SDS011;2290;48.674;9.018;2022-08-19T03:08:36;15.17;;;7.47;;
4555;SDS011;2290;48.674;9.018;2022-08-19T03:11:02;16.83;;;9.20;;
4555;SDS011;2290;48.674;9.018;2022-08-19T03:13:28;15.23;;;8.37;;
4555;SDS011;2290;48.674;9.018;2022-08-19T03:15:54;17.40;;;9.13;;
4555;SDS011;2290;48.674;9.018;2022-08-19T03:18:19;14.73;;;8.40;;
4555;SDS011;2290;48.674;9.018;2022-08-19T03:20:46;18.40;;;9.60;;
4555;SDS011;2290;48.674;9.018;2022-08-19T03:23:13;15.30;;;8.70;;
4555;SDS011;2290;48.674;9.018;2022-08-19T03:25:40;16.87;;;10.03;;
4555;SDS011;2290;48.674;9.018;2022-08-19T03:28:08;17.40;;;8.53;;
4555;SDS011;2290;48.674;9.018;2022-08-19T03:30:38;16.93;;;8.63;;
4555;SDS011;2290;48.674;9.018;2022-08-19T03:33:06;13.43;;;8.20;;
4555;SDS011;2290;48.674;9.018;2022-08-19T03:35:32;17.20;;;10.87;;
4555;SDS011;2290;48.674;9.018;2022-08-19T03:38:01;18.70;;;10.43;;
4555;SDS011;2290;48.674;9.018;2022-08-19T03:40:27;17.33;;;9.50;;
4555;SDS011;2290;48.674;9.018;2022-08-19T03:42:55;19.63;;;10.27;;
4555;SDS011;2290;48.674;9.018;2022-08-19T03:45:21;20.97;;;10.40;;
4555;SDS011;2290;48.674;9.018;2022-08-19T03:47:47;14.97;;;9.20;;
4555;SDS011;2290;48.674;9.018;2022-08-19T03:50:13;17.17;;;9.27;;
4555;SDS011;2290;48.674;9.018;2022-08-19T03:52:39;19.20;;;10.63;;
4555;SDS011;2290;48.674;9.018;2022-08-19T03:55:05;18.90;;;10.40;;
4555;SDS011;2290;48.674;9.018;2022-08-19T03:57:32;18.20;;;10.83;;
4555;SDS011;2290;48.674;9.018;2022-08-19T03:59:59;22.17;;;10.10;;
4555;SDS011;2290;48.674;9.018;2022-08-19T04:02:25;19.20;;;9.97;;
4555;SDS011;2290;48.674;9.018;2022-08-19T04:04:52;18.23;;;9.40;;
4555;SDS011;2290;48.674;9.018;2022-08-19T04:07:19;19.37;;;9.57;;
4555;SDS011;2290;48.674;9.018;2022-08-19T04:09:46;19.80;;;9.80;;
4555;SDS011;2290;48.674;9.018;2022-08-19T04:12:12;18.30;;;10.17;;
4555;SDS011;2290;48.674;9.018;2022-08-19T04:14:38;19.17;;;10.07;;
4555;SDS011;2290;48.674;9.018;2022-08-19T04:17:04;15.87;;;10.30;;
4555;SDS011;2290;48.674;9.018;2022-08-19T04:19:30;16.80;;;9.33;;
4555;SDS011;2290;48.674;9.018;2022-08-19T04:21:58;16.60;;;9.80;;
4555;SDS011;2290;48.674;9.018;2022-08-19T04:24:23;17.80;;;9.90;;
4555;SDS011;2290;48.674;9.018;2022-08-19T04:26:49;18.20;;;10.00;;
4555;SDS011;2290;48.674;9.018;2022-08-19T04:29:17;16.60;;;9.60;;
4555;SDS011;2290;48.674;9.018;2022-08-19T04:31:47;22.20;;;11.23;;
4555;SDS011;2290;48.674;9.018;2022-08-19T04:34:14;22.40;;;10.93;;
4555;SDS011;2290;48.674;9.018;2022-08-19T04:36:44;18.73;;;9.73;;
4555;SDS011;2290;48.674;9.018;2022-08-19T04:39:12;17.63;;;10.10;;
4555;SDS011;2290;48.674;9.018;2022-08-19T04:41:40;20.63;;;10.50;;
4555;SDS011;2290;48.674;9.018;2022-08-19T04:44:24;18.30;;;9.13;;
4555;SDS011;2290;48.674;9.018;2022-08-19T04:46:51;18.67;;;9.80;;
4555;SDS011;2290;48.674;9.018;2022-08-19T04:49:18;18.10;;;10.13;;
4555;SDS011;2290;48.674;9.018;2022-08-19T04:51:46;20.93;;;10.67;;
4555;SDS011;2290;48.674;9.018;2022-08-19T04:54:15;19.00;;;10.07;;
4555;SDS011;2290;48.674;9.018;2022-08-19T04:56:43;17.17;;;9.10;;
4555;SDS011;2290;48.674;9.018;2022-08-19T04:59:09;18.57;;;9.57;;
4555;SDS011;2290;48.674;9.018;2022-08-19T05:01:35;18.90;;;9.60;;
4555;SDS011;2290;48.674;9.018;2022-08-19T05:04:02;28.33;;;12.83;;
4555;SDS011;2290;48.674;9.018;2022-08-19T05:06:30;19.27;;;10.77;;
4555;SDS011;2290;48.674;9.018;2022-08-19T05:08:58;18.80;;;10.73;;
4555;SDS011;2290;48.674;9.018;2022-08-19T05:11:28;20.23;;;10.33;;
4555;SDS011;2290;48.674;9.018;2022-08-19T05:13:56;14.93;;;9.20;;
4555;SDS011;2290;48.674;9.018;2022-08-19T05:16:23;20.77;;;11.03;;
4555;SDS011;2290;48.674;9.018;2022-08-19T05:18:50;21.50;;;11.20;;
4555;SDS011;2290;48.674;9.018;2022-08-19T05:21:34;17.33;;;9.90;;
4555;SDS011;2290;48.674;9.018;2022-08-19T05:24:20;15.97;;;9.33;;
4555;SDS011;2290;48.674;9.018;2022-08-19T05:26:47;16.37;;;9.53;;
4555;SDS011;2290;48.674;9.018;2022-08-19T05:29:15;17.53;;;9.90;;
4555;SDS011;2290;48.674;9.018;2022-08-19T05:31:42;18.07;;;10.43;;
4555;SDS011;2290;48.674;9.018;2022-08-19T05:34:09;18.43;;;10.50;;
4555;SDS011;2290;48.674;9.018;2022-08-19T05:36:40;18.43;;;10.43;;
4555;SDS011;2290;48.674;9.018;2022-08-19T05:39:08;20.63;;;9.97;;
4555;SDS011;2290;48.674;9.018;2022-08-19T05:41:42;20.10;;;8.90;;
4555;SDS011;2290;48.674;9.018;2022-08-19T05:44:08;19.43;;;9.60;;
4555;SDS011;2290;48.674;9.018;2022-08-19T05:46:35;15.63;;;9.67;;
4555;SDS011;2290;48.674;9.018;2022-08-19T05:49:02;18.57;;;9.97;;
4555;SDS011;2290;48.674;9.018;2022-08-19T05:51:32;16.40;;;9.87;;
4555;SDS011;2290;48.674;9.018;2022-08-19T05:53:59;17.37;;;9.53;;
4555;SDS011;2290;48.674;9.018;2022-08-19T05:56:29;24.17;;;11.03;;
4555;SDS011;2290;48.674;9.018;2022-08-19T05:59:01;17.70;;;10.20;;
4555;SDS011;2290;48.674;9.018;2022-08-19T06:01:27;21.30;;;10.10;;
4555;SDS011;2290;48.674;9.018;2022-08-19T06:03:53;16.07;;;8.50;;
4555;SDS011;2290;48.674;9.018;2022-08-19T06:06:19;18.30;;;10.10;;
4555;SDS011;2290;48.674;9.018;2022-08-19T06:08:45;17.93;;;10.43;;
4555;SDS011;2290;48.674;9.018;2022-08-19T06:13:41;21.23;;;10.37;;
4555;SDS011;2290;48.674;9.018;2022-08-19T06:16:07;16.03;;;9.20;;
4555;SDS011;2290;48.674;9.018;2022-08-19T06:18:33;16.40;;;9.30;;
4555;SDS011;2290;48.674;9.018;2022-08-19T06:20:58;17.20;;;9.97;;
4555;SDS011;2290;48.674;9.018;2022-08-19T06:23:24;17.33;;;10.27;;
4555;SDS011;2290;48.674;9.018;2022-08-19T06:25:50;16.53;;;9.53;;
4555;SDS011;2290;48.674;9.018;2022-08-19T06:28:16;18.70;;;9.57;;
4555;SDS011;2290;48.674;9.018;2022-08-19T06:30:41;17.00;;;9.73;;
4555;SDS011;2290;48.674;9.018;2022-08-19T06:33:07;16.50;;;9.50;;
4555;SDS011;2290;48.674;9.018;2022-08-19T06:35:33;16.23;;;10.00;;
4555;SDS011;2290;48.674;9.018;2022-08-19T06:38:04;16.17;;;10.17;;
4555;SDS011;2290;48.674;9.018;2022-08-19T06:40:30;20.60;;;10.33;;
4555;SDS011;2290;48.674;9.018;2022-08-19T06:42:57;19.43;;;9.10;;
4555;SDS011;2290;48.674;9.018;2022-08-19T06:45:24;18.33;;;10.30;;
4555;SDS011;2290;48.674;9.018;2022-08-19T06:47:51;18.50;;;9.97;;
4555;SDS011;2290;48.674;9.018;2022-08-19T06:50:19;21.03;;;10.67;;
4555;SDS011;2290;48.674;9.018;2022-08-19T06:52:44;16.47;;;9.30;;
4555;SDS011;2290;48.674;9.018;2022-08-19T06:55:11;20.23;;;10.53;;
4555;SDS011;2290;48.674;9.018;2022-08-19T06:57:37;19.23;;;10.00;;
4555;SDS011;2290;48.674;9.018;2022-08-19T07:00:03;18.57;;;9.73;;
4555;SDS011;2290;48.674;9.018;2022-08-19T07:02:30;15.90;;;9.43;;
4555;SDS011;2290;48.674;9.018;2022-08-19T07:04:55;16.33;;;9.70;;
4555;SDS011;2290;48.674;9.018;2022-08-19T07:07:27;18.77;;;9.27;;
4555;SDS011;2290;48.674;9.018;2022-08-19T07:09:53;17.77;;;10.83;;
4555;SDS011;2290;48.674;9.018;2022-08-19T07:12:18;16.20;;;8.80;;
4555;SDS011;2290;48.674;9.018;2022-08-19T07:14:44;18.07;;;9.80;;
4555;SDS011;2290;48.674;9.018;2022-08-19T07:17:13;20.40;;;9.90;;
4555;SDS011;2290;48.674;9.018;2022-08-19T07:19:39;19.37;;;10.10;;
4555;SDS011;2290;48.674;9.018;2022-08-19T07:22:06;18.93;;;9.30;;
4555;SDS011;2290;48.674;9.018;2022-08-19T07:24:33;20.90;;;9.17;;
4555;SDS011;2290;48.674;9.018;2022-08-19T07:27:00;16.97;;;8.73;;
4555;SDS011;2290;48.674;9.018;2022-08-19T07:29:28;18.00;;;9.83;;
4555;SDS011;2290;48.674;9.018;2022-08-19T07:31:55;15.50;;;9.10;;
4555;SDS011;2290;48.674;9.018;2022-08-19T07:34:23;15.03;;;7.90;;
4555;SDS011;2290;48.674;9.018;2022-08-19T07:36:50;15.43;;;8.87;;
4555;SDS011;2290;48.674;9.018;2022-08-19T07:39:23;14.77;;;8.30;;
4555;SDS011;2290;48.674;9.018;2022-08-19T07:41:50;16.80;;;8.43;;
4555;SDS011;2290;48.674;9.018;2022-08-19T07:44:17;16.87;;;8.90;;
4555;SDS011;2290;48.674;9.018;2022-08-19T07:46:44;13.20;;;8.10;;
4555;SDS011;2290;48.674;9.018;2022-08-19T07:49:13;16.90;;;9.27;;
4555;SDS011;2290;48.674;9.018;2022-08-19T07:51:44;15.60;;;9.33;;
4555;SDS011;2290;48.674;9.018;2022-08-19T07:54:12;14.90;;;8.27;;
4555;SDS011;2290;48.674;9.018;2022-08-19T07:56:38;17.07;;;9.00;;
4555;SDS011;2290;48.674;9.018;2022-08-19T07:59:03;16.47;;;8.13;;
4555;SDS011;2290;48.674;9.018;2022-08-19T08:01:29;13.27;;;8.33;;
4555;SDS011;2290;48.674;9.018;2022-08-19T08:03:56;16.33;;;8.90;;
4555;SDS011;2290;48.674;9.018;2022-08-19T08:06:41;15.13;;;8.90;;
4555;SDS011;2290;48.674;9.018;2022-08-19T08:09:27;16.43;;;8.80;;
4555;SDS011;2290;48.674;9.018;2022-08-19T08:11:57;14.43;;;8.43;;
4555;SDS011;2290;48.674;9.018;2022-08-19T08:14:29;19.60;;;9.07;;
4555;SDS011;2290;48.674;9.018;2022-08-19T08:16:57;15.07;;;9.37;;
4555;SDS011;2290;48.674;9.018;2022-08-19T08:19:24;16.70;;;8.70;;
4555;SDS011;2290;48.674;9.018;2022-08-19T08:21:51;16.73;;;8.97;;
4555;SDS011;2290;48.674;9.018;2022-08-19T08:24:18;18.03;;;8.23;;
4555;SDS011;2290;48.674;9.018;2022-08-19T08:26:45;17.47;;;8.77;;
4555;SDS011;2290;48.674;9.018;2022-08-19T08:29:11;18.80;;;10.10;;
4555;SDS011;2290;48.674;9.018;2022-08-19T08:31:38;18.10;;;8.57;;
4555;SDS011;2290;48.674;9.018;2022-08-19T08:34:05;14.27;;;7.93;;
4555;SDS011;2290;48.674;9.018;2022-08-19T08:36:31;14.30;;;8.00;;
4555;SDS011;2290;48.674;9.018;2022-08-19T08:38:59;13.30;;;8.63;;
4555;SDS011;2290;48.674;9.018;2022-08-19T08:44:43;14.50;;;8.83;;
4555;SDS011;2290;48.674;9.018;2022-08-19T08:47:20;17.87;;;8.37;;
4555;SDS011;2290;48.674;9.018;2022-08-19T08:49:49;13.17;;;8.50;;
4555;SDS011;2290;48.674;9.018;2022-08-19T08:52:19;14.77;;;8.20;;
4555;SDS011;2290;48.674;9.018;2022-08-19T08:55:03;12.33;;;8.10;;
4555;SDS011;2290;48.674;9.018;2022-08-19T09:00:10;13.17;;;8.17;;
4555;SDS011;2290;48.674;9.018;2022-08-19T09:02:43;13.87;;;8.23;;
4555;SDS011;2290;48.674;9.018;2022-08-19T09:05:09;13.07;;;7.80;;
4555;SDS011;2290;48.674;9.018;2022-08-19T09:07:52;15.40;;;8.63;;
4555;SDS011;2290;48.674;9.018;2022-08-19T09:10:40;14.67;;;9.20;;
4555;SDS011;2290;48.674;9.018;2022-08-19T09:15:40;15.97;;;8.17;;
4555;SDS011;2290;48.674;9.018;2022-08-19T09:18:12;13.03;;;8.00;;
4555;SDS011;2290;48.674;9.018;2022-08-19T09:20:39;13.40;;;7.87;;
4555;SDS011;2290;48.674;9.018;2022-08-19T09:23:04;14.03;;;7.93;;
4555;SDS011;2290;48.674;9.018;2022-08-19T09:25:30;10.90;;;6.97;;
4555;SDS011;2290;48.674;9.018;2022-08-19T09:27:59;12.70;;;6.33;;
4555;SDS011;2290;48.674;9.018;2022-08-19T09:30:29;13.20;;;7.93;;
4555;SDS011;2290;48.674;9.018;2022-08-19T09:32:58;14.70;;;8.53;;
4555;SDS011;2290;48.674;9.018;2022-08-19T09:35:26;13.53;;;8.30;;
4555;SDS011;2290;48.674;9.018;2022-08-19T09:37:54;12.50;;;8.30;;
4555;SDS011;2290;48.674;9.018;2022-08-19T09:40:21;13.87;;;7.97;;
4555;SDS011;2290;48.674;9.018;2022-08-19T09:42:47;13.97;;;8.33;;
4555;SDS011;2290;48.674;9.018;2022-08-19T09:45:17;10.70;;;7.50;;
4555;SDS011;2290;48.674;9.018;2022-08-19T09:47:45;12.03;;;7.50;;
4555;SDS011;2290;48.674;9.018;2022-08-19T09:50:11;11.13;;;6.93;;
4555;SDS011;2290;48.674;9.018;2022-08-19T09:52:37;11.40;;;7.43;;
4555;SDS011;2290;48.674;9.018;2022-08-19T09:55:04;15.87;;;8.90;;
4555;SDS011;2290;48.674;9.018;2022-08-19T09:57:31;15.63;;;9.10;;
4555;SDS011;2290;48.674;9.018;2022-08-19T09:59:57;10.97;;;7.20;;
4555;SDS011;2290;48.674;9.018;2022-08-19T10:02:23;12.83;;;7.50;;
4555;SDS011;2290;48.674;9.018;2022-08-19T10:04:49;11.47;;;6.97;;
4555;SDS011;2290;48.674;9.018;2022-08-19T10:07:34;11.10;;;7.33;;
4555;SDS011;2290;48.674;9.018;2022-08-19T10:10:00;13.93;;;8.20;;
4555;SDS011;2290;48.674;9.018;2022-08-19T10:12:27;14.20;;;9.20;;
4555;SDS011;2290;48.674;9.018;2022-08-19T10:14:53;18.17;;;7.73;;
4555;SDS011;2290;48.674;9.018;2022-08-19T10:17:19;8.90;;;6.20;;
4555;SDS011;2290;48.674;9.018;2022-08-19T10:19:45;15.57;;;8.47;;
4555;SDS011;2290;48.674;9.018;2022-08-19T10:22:10;11.60;;;7.60;;
4555;SDS011;2290;48.674;9.018;2022-08-19T10:24:38;9.77;;;6.17;;
4555;SDS011;2290;48.674;9.018;2022-08-19T10:27:04;14.40;;;7.63;;
4555;SDS011;2290;48.674;9.018;2022-08-19T10:29:30;12.17;;;7.80;;
4555;SDS011;2290;48.674;9.018;2022-08-19T10:32:03;16.93;;;7.90;;
4555;SDS011;2290;48.674;9.018;2022-08-19T10:34:33;10.40;;;7.33;;
4555;SDS011;2290;48.674;9.018;2022-08-19T10:37:00;12.43;;;7.10;;
4555;SDS011;2290;48.674;9.018;2022-08-19T10:39:26;11.60;;;7.30;;
4555;SDS011;2290;48.674;9.018;2022-08-19T10:41:55;13.33;;;6.70;;
4555;SDS011;2290;48.674;9.018;2022-08-19T10:44:21;10.07;;;6.67;;
4555;SDS011;2290;48.674;9.018;2022-08-19T10:46:49;10.60;;;6.30;;
4555;SDS011;2290;48.674;9.018;2022-08-19T10:49:16;10.67;;;6.40;;
4555;SDS011;2290;48.674;9.018;2022-08-19T10:51:43;10.20;;;7.30;;
4555;SDS011;2290;48.674;9.018;2022-08-19T10:54:27;9.30;;;6.00;;
4555;SDS011;2290;48.674;9.018;2022-08-19T10:57:14;8.80;;;6.43;;
4555;SDS011;2290;48.674;9.018;2022-08-19T10:59:40;7.10;;;5.03;;
4555;SDS011;2290;48.674;9.018;2022-08-19T11:02:07;8.33;;;5.30;;
4555;SDS011;2290;48.674;9.018;2022-08-19T11:04:38;8.70;;;5.97;;
4555;SDS011;2290;48.674;9.018;2022-08-19T11:07:05;8.93;;;6.00;;
4555;SDS011;2290;48.674;9.018;2022-08-19T11:09:36;8.23;;;6.17;;
4555;SDS011;2290;48.674;9.018;2022-08-19T11:12:07;7.57;;;5.50;;
4555;SDS011;2290;48.674;9.018;2022-08-19T11:14:34;10.13;;;6.20;;
4555;SDS011;2290;48.674;9.018;2022-08-19T11:17:01;9.13;;;6.10;;
4555;SDS011;2290;48.674;9.018;2022-08-19T11:19:28;8.47;;;5.73;;
4555;SDS011;2290;48.674;9.018;2022-08-19T11:21:54;8.83;;;6.20;;
4555;SDS011;2290;48.674;9.018;2022-08-19T11:24:20;9.87;;;6.67;;
4555;SDS011;2290;48.674;9.018;2022-08-19T11:26:48;9.70;;;6.37;;
4555;SDS011;2290;48.674;9.018;2022-08-19T11:29:15;7.67;;;5.83;;
4555;SDS011;2290;48.674;9.018;2022-08-19T11:31:43;14.70;;;6.73;;
4555;SDS011;2290;48.674;9.018;2022-08-19T11:34:12;10.40;;;6.90;;
4555;SDS011;2290;48.674;9.018;2022-08-19T11:36:42;10.27;;;6.10;;
4555;SDS011;2290;48.674;9.018;2022-08-19T11:39:10;8.90;;;5.97;;
4555;SDS011;2290;48.674;9.018;2022-08-19T11:41:37;9.50;;;6.47;;
4555;SDS011;2290;48.674;9.018;2022-08-19T11:44:04;10.80;;;6.40;;
4555;SDS011;2290;48.674;9.018;2022-08-19T11:46:30;11.17;;;6.03;;
4555;SDS011;2290;48.674;9.018;2022-08-19T11:48:56;8.83;;;6.03;;
4555;SDS011;2290;48.674;9.018;2022-08-19T11:51:24;10.17;;;6.47;;
4555;SDS011;2290;48.674;9.018;2022-08-19T11:53:51;7.80;;;5.93;;
4555;SDS011;2290;48.674;9.018;2022-08-19T11:56:18;8.00;;;5.80;;
4555;SDS011;2290;48.674;9.018;2022-08-19T11:58:44;8.90;;;5.80;;
4555;SDS011;2290;48.674;9.018;2022-08-19T12:01:11;9.17;;;6.77;;
4555;SDS011;2290;48.674;9.018;2022-08-19T12:03:41;10.60;;;6.57;;
4555;SDS011;2290;48.674;9.018;2022-08-19T12:06:12;7.53;;;5.63;;
4555;SDS011;2290;48.674;9.018;2022-08-19T12:08:41;7.97;;;5.27;;
4555;SDS011;2290;48.674;9.018;2022-08-19T12:11:08;9.17;;;5.83;;
4555;SDS011;2290;48.674;9.018;2022-08-19T12:13:34;9.60;;;6.27;;
4555;SDS011;2290;48.674;9.018;2022-08-19T12:15:59;9.63;;;6.00;;
4555;SDS011;2290;48.674;9.018;2022-08-19T12:18:26;10.20;;;5.70;;
4555;SDS011;2290;48.674;9.018;2022-08-19T12:20:53;8.13;;;5.70;;
4555;SDS011;2290;48.674;9.018;2022-08-19T12:23:19;11.27;;;6.00;;
4555;SDS011;2290;48.674;9.018;2022-08-19T12:25:46;9.30;;;5.30;;
4555;SDS011;2290;48.674;9.018;2022-08-19T12:28:18;9.80;;;5.63;;
4555;SDS011;2290;48.674;9.018;2022-08-19T12:30:46;9.93;;;6.00;;
4555;SDS011;2290;48.674;9.018;2022-08-19T12:33:12;9.10;;;5.67;;
4555;SDS011;2290;48.674;9.018;2022-08-19T12:35:42;8.33;;;5.80;;
4555;SDS011;2290;48.674;9.018;2022-08-19T12:38:09;7.70;;;5.63;;
4555;SDS011;2290;48.674;9.018;2022-08-19T12:40:35;10.50;;;5.97;;
4555;SDS011;2290;48.674;9.018;2022-08-19T12:43:01;7.27;;;5.77;;
4555;SDS011;2290;48.674;9.018;2022-08-19T12:45:26;7.07;;;5.20;;
4555;SDS011;2290;48.674;9.018;2022-08-19T12:47:52;6.73;;;5.07;;
4555;SDS011;2290;48.674;9.018;2022-08-19T12:50:18;6.60;;;4.87;;
4555;SDS011;2290;48.674;9.018;2022-08-19T12:52:44;11.77;;;5.07;;
4555;SDS011;2290;48.674;9.018;2022-08-19T12:55:09;6.43;;;5.20;;
4555;SDS011;2290;48.674;9.018;2022-08-19T12:57:36;7.17;;;5.13;;
4555;SDS011;2290;48.674;9.018;2022-08-19T13:00:08;6.73;;;5.07;;
4555;SDS011;2290;48.674;9.018;2022-08-19T13:02:39;6.80;;;5.50;;
4555;SDS011;2290;48.674;9.018;2022-08-19T13:05:07;6.90;;;5.50;;
4555;SDS011;2290;48.674;9.018;2022-08-19T13:07:36;6.60;;;5.70;;
4555;SDS011;2290;48.674;9.018;2022-08-19T13:10:03;6.70;;;5.60;;
4555;SDS011;2290;48.674;9.018;2022-08-19T13:12:30;8.20;;;6.10;;
4555;SDS011;2290;48.674;9.018;2022-08-19T13:14:56;8.17;;;6.03;;
4555;SDS011;2290;48.674;9.018;2022-08-19T13:17:22;7.10;;;5.47;;
4555;SDS011;2290;48.674;9.018;2022-08-19T13:19:48;7.63;;;5.70;;
4555;SDS011;2290;48.674;9.018;2022-08-19T13:22:13;6.73;;;5.27;;
4555;SDS011;2290;48.674;9.018;2022-08-19T13:24:39;6.83;;;5.30;;
4555;SDS011;2290;48.674;9.018;2022-08-19T13:27:05;7.30;;;5.33;;
4555;SDS011;2290;48.674;9.018;2022-08-19T13:29:31;6.97;;;5.90;;
4555;SDS011;2290;48.674;9.018;2022-08-19T13:32:16;7.30;;;5.77;;
4555;SDS011;2290;48.674;9.018;2022-08-19T13:35:00;6.87;;;5.47;;
4555;SDS011;2290;48.674;9.018;2022-08-19T13:37:26;7.20;;;6.40;;
4555;SDS011;2290;48.674;9.018;2022-08-19T13:40:19;7.00;;;5.57;;
4555;SDS011;2290;48.674;9.018;2022-08-19T13:42:49;7.77;;;5.50;;
4555;SDS011;2290;48.674;9.018;2022-08-19T13:45:19;6.43;;;5.53;;
4555;SDS011;2290;48.674;9.018;2022-08-19T13:47:47;7.13;;;5.60;;
4555;SDS011;2290;48.674;9.018;2022-08-19T13:50:19;8.70;;;6.13;;
4555;SDS011;2290;48.674;9.018;2022-08-19T13:52:47;8.00;;;6.37;;
4555;SDS011;2290;48.674;9.018;2022-08-19T13:55:14;10.47;;;7.37;;
4555;SDS011;2290;48.674;9.018;2022-08-19T13:57:40;8.40;;;6.80;;
4555;SDS011;2290;48.674;9.018;2022-08-19T14:00:10;8.50;;;6.50;;
4555;SDS011;2290;48.674;9.018;2022-08-19T14:02:38;9.23;;;6.40;;
4555;SDS011;2290;48.674;9.018;2022-08-19T14:05:05;8.27;;;6.10;;
4555;SDS011;2290;48.674;9.018;2022-08-19T14:07:33;9.30;;;6.93;;
4555;SDS011;2290;48.674;9.018;2022-08-19T14:09:59;9.43;;;7.53;;
4555;SDS011;2290;48.674;9.018;2022-08-19T14:12:25;9.17;;;7.03;;
4555;SDS011;2290;48.674;9.018;2022-08-19T14:14:51;6.87;;;6.17;;
4555;SDS011;2290;48.674;9.018;2022-08-19T14:17:16;8.70;;;6.10;;
4555;SDS011;2290;48.674;9.018;2022-08-19T14:19:42;7.60;;;6.00;;
4555;SDS011;2290;48.674;9.018;2022-08-19T14:22:08;7.50;;;6.60;;
4555;SDS011;2290;48.674;9.018;2022-08-19T14:24:34;9.33;;;6.80;;
4555;SDS011;2290;48.674;9.018;2022-08-19T14:27:05;10.80;;;7.63;;
4555;SDS011;2290;48.674;9.018;2022-08-19T14:29:31;8.07;;;6.50;;
4555;SDS011;2290;48.674;9.018;2022-08-19T14:31:57;9.67;;;7.33;;
4555;SDS011;2290;48.674;9.018;2022-08-19T14:34:24;10.43;;;6.93;;
4555;SDS011;2290;48.674;9.018;2022-08-19T14:36:51;7.90;;;6.37;;
4555;SDS011;2290;48.674;9.018;2022-08-19T14:39:17;12.33;;;7.00;;
4555;SDS011;2290;48.674;9.018;2022-08-19T14:41:42;7.07;;;5.83;;
4555;SDS011;2290;48.674;9.018;2022-08-19T14:44:08;8.20;;;6.70;;
4555;SDS011;2290;48.674;9.018;2022-08-19T14:46:37;8.00;;;6.47;;
4555;SDS011;2290;48.674;9.018;2022-08-19T14:49:03;7.90;;;6.47;;
4555;SDS011;2290;48.674;9.018;2022-08-19T14:51:29;7.90;;;6.93;;
4555;SDS011;2290;48.674;9.018;2022-08-19T14:53:55;8.00;;;6.07;;
4555;SDS011;2290;48.674;9.018;2022-08-19T14:56:23;8.90;;;6.43;;
4555;SDS011;2290;48.674;9.018;2022-08-19T14:58:50;8.47;;;6.40;;
4555;SDS011;2290;48.674;9.018;2022-08-19T15:01:17;9.13;;;6.73;;
4555;SDS011;2290;48.674;9.018;2022-08-19T15:03:45;9.47;;;6.97;;
4555;SDS011;2290;48.674;9.018;2022-08-19T15:06:12;7.00;;;6.03;;
4555;SDS011;2290;48.674;9.018;2022-08-19T15:08:38;7.90;;;6.00;;
4555;SDS011;2290;48.674;9.018;2022-08-19T15:11:14;7.70;;;6.27;;
4555;SDS011;2290;48.674;9.018;2022-08-19T15:13:42;8.83;;;6.43;;
4555;SDS011;2290;48.674;9.018;2022-08-19T15:16:09;8.47;;;6.47;;
4555;SDS011;2290;48.674;9.018;2022-08-19T15:18:36;9.07;;;6.40;;
4555;SDS011;2290;48.674;9.018;2022-08-19T15:21:03;8.97;;;5.60;;